sensor_id;sensor_type;location;lat;lon;timestamp;pressure;altitude;pressure_sealevel;temperature;humidity
8253;BME280;61313;48.396;10.008;2023-11-18T00:00:25;96981.16;;;6.29;72.42
8253;BME280;61313;48.396;10.008;2023-11-18T00:02:51;96983.06;;;6.20;73.24
8253;BME280;61313;48.396;10.008;2023-11-18T00:05:16;96987.38;;;6.21;73.01
8253;BME280;61313;48.396;10.008;2023-11-18T00:07:43;96990.91;;;6.18;73.24
8253;BME280;61313;48.396;10.008;2023-11-18T00:10:08;96992.63;;;6.19;73.67
8253;BME280;61313;48.396;10.008;2023-11-18T00:12:35;96989.97;;;6.21;73.52
8253;BME280;61313;48.396;10.008;2023-11-18T00:15:03;96978.78;;;6.14;73.69
8253;BME280;61313;48.396;10.008;2023-11-18T00:17:30;96981.47;;;6.09;73.60
8253;BME280;61313;48.396;10.008;2023-11-18T00:19:56;96981.53;;;6.08;73.88
8253;BME280;61313;48.396;10.008;2023-11-18T00:22:21;96986.81;;;6.02;74.33
8253;BME280;61313;48.396;10.008;2023-11-18T00:24:47;96978.16;;;6.00;74.38
8253;BME280;61313;48.396;10.008;2023-11-18T00:27:12;96985.97;;;6.01;74.31
8253;BME280;61313;48.396;10.008;2023-11-18T00:29:40;96985.03;;;6.05;74.40
8253;BME280;61313;48.396;10.008;2023-11-18T00:32:06;96993.00;;;5.98;74.79
8253;BME280;61313;48.396;10.008;2023-11-18T00:34:32;96986.78;;;6.05;74.63
8253;BME280;61313;48.396;10.008;2023-11-18T00:36:58;96981.84;;;5.85;74.87
8253;BME280;61313;48.396;10.008;2023-11-18T00:39:24;96988.56;;;6.03;74.94
8253;BME280;61313;48.396;10.008;2023-11-18T00:41:50;96989.47;;;6.00;74.83
8253;BME280;61313;48.396;10.008;2023-11-18T00:44:15;96987.78;;;5.96;74.76
8253;BME280;61313;48.396;10.008;2023-11-18T00:46:41;96997.25;;;6.02;74.45
8253;BME280;61313;48.396;10.008;2023-11-18T00:49:06;96993.88;;;5.95;74.56
8253;BME280;61313;48.396;10.008;2023-11-18T00:51:32;96990.41;;;5.96;74.62
8253;BME280;61313;48.396;10.008;2023-11-18T00:53:57;96993.72;;;6.04;74.41
8253;BME280;61313;48.396;10.008;2023-11-18T00:56:26;96988.47;;;6.07;74.15
8253;BME280;61313;48.396;10.008;2023-11-18T00:58:51;96997.22;;;6.05;74.24
8253;BME280;61313;48.396;10.008;2023-11-18T01:01:17;96997.28;;;6.00;74.21
8253;BME280;61313;48.396;10.008;2023-11-18T01:03:46;96992.09;;;5.99;74.77
8253;BME280;61313;48.396;10.008;2023-11-18T01:06:12;96986.94;;;5.92;74.68
8253;BME280;61313;48.396;10.008;2023-11-18T01:08:37;96992.94;;;5.99;74.35
8253;BME280;61313;48.396;10.008;2023-11-18T01:11:03;96994.69;;;6.00;74.75
8253;BME280;61313;48.396;10.008;2023-11-18T01:13:32;96995.56;;;5.99;74.70
8253;BME280;61313;48.396;10.008;2023-11-18T01:15:57;96998.94;;;6.04;74.26
8253;BME280;61313;48.396;10.008;2023-11-18T01:18:23;96997.22;;;6.03;74.47
8253;BME280;61313;48.396;10.008;2023-11-18T01:20:49;96993.88;;;5.95;74.85
8253;BME280;61313;48.396;10.008;2023-11-18T01:23:14;96988.66;;;5.95;74.67
8253;BME280;61313;48.396;10.008;2023-11-18T01:25:40;96987.91;;;5.87;75.03
8253;BME280;61313;48.396;10.008;2023-11-18T01:28:06;96995.78;;;5.82;74.99
8253;BME280;61313;48.396;10.008;2023-11-18T01:30:31;96990.63;;;5.79;75.26
8253;BME280;61313;48.396;10.008;2023-11-18T01:32:58;96994.94;;;5.82;75.00
8253;BME280;61313;48.396;10.008;2023-11-18T01:35:29;96993.19;;;5.81;74.98
8253;BME280;61313;48.396;10.008;2023-11-18T01:37:54;97000.22;;;5.77;75.18
8253;BME280;61313;48.396;10.008;2023-11-18T01:40:20;97001.97;;;5.77;75.33
8253;BME280;61313;48.396;10.008;2023-11-18T01:42:46;97008.81;;;5.84;74.70
8253;BME280;61313;48.396;10.008;2023-11-18T01:45:12;97007.97;;;5.80;74.75
8253;BME280;61313;48.396;10.008;2023-11-18T01:47:40;97003.75;;;5.71;75.17
8253;BME280;61313;48.396;10.008;2023-11-18T01:50:07;97015.13;;;5.66;75.24
8253;BME280;61313;48.396;10.008;2023-11-18T01:52:34;97020.28;;;5.70;75.07
8253;BME280;61313;48.396;10.008;2023-11-18T01:54:59;97031.59;;;5.68;75.23
8253;BME280;61313;48.396;10.008;2023-11-18T01:57:25;97024.59;;;5.71;75.04
8253;BME280;61313;48.396;10.008;2023-11-18T01:59:53;97029.91;;;5.65;75.13
8253;BME280;61313;48.396;10.008;2023-11-18T02:02:19;97025.53;;;5.67;74.83
8253;BME280;61313;48.396;10.008;2023-11-18T02:04:46;97033.28;;;5.72;74.51
8253;BME280;61313;48.396;10.008;2023-11-18T02:07:13;97024.63;;;5.68;74.38
8253;BME280;61313;48.396;10.008;2023-11-18T02:09:43;97031.53;;;5.74;74.37
8253;BME280;61313;48.396;10.008;2023-11-18T02:12:26;97025.47;;;5.70;74.55
8253;BME280;61313;48.396;10.008;2023-11-18T02:14:55;97022.94;;;5.67;74.39
8253;BME280;61313;48.396;10.008;2023-11-18T02:17:25;97022.88;;;5.69;74.28
8253;BME280;61313;48.396;10.008;2023-11-18T02:19:52;97031.59;;;5.69;74.03
8253;BME280;61313;48.396;10.008;2023-11-18T02:22:18;97021.19;;;5.66;74.04
8253;BME280;61313;48.396;10.008;2023-11-18T02:24:44;97026.47;;;5.63;74.00
8253;BME280;61313;48.396;10.008;2023-11-18T02:27:10;97029.25;;;5.51;74.14
8253;BME280;61313;48.396;10.008;2023-11-18T02:29:41;97027.47;;;5.53;74.44
8253;BME280;61313;48.396;10.008;2023-11-18T02:32:33;97029.97;;;5.59;74.15
8253;BME280;61313;48.396;10.008;2023-11-18T02:37:31;97034.44;;;5.51;74.26
8253;BME280;61313;48.396;10.008;2023-11-18T02:40:03;97042.38;;;5.43;74.06
8253;BME280;61313;48.396;10.008;2023-11-18T02:42:35;97046.50;;;5.58;74.08
8253;BME280;61313;48.396;10.008;2023-11-18T02:45:03;97036.78;;;5.69;73.81
8253;BME280;61313;48.396;10.008;2023-11-18T02:47:32;97041.91;;;5.76;73.91
8253;BME280;61313;48.396;10.008;2023-11-18T02:49:57;97040.31;;;5.65;73.88
8253;BME280;61313;48.396;10.008;2023-11-18T02:52:30;97047.09;;;5.76;73.49
8253;BME280;61313;48.396;10.008;2023-11-18T02:54:56;97045.47;;;5.68;73.73
8253;BME280;61313;48.396;10.008;2023-11-18T02:57:21;97047.16;;;5.71;73.44
8253;BME280;61313;48.396;10.008;2023-11-18T02:59:47;97042.13;;;5.60;74.11
8253;BME280;61313;48.396;10.008;2023-11-18T03:02:12;97034.19;;;5.68;73.62
8253;BME280;61313;48.396;10.008;2023-11-18T03:04:38;97042.13;;;5.60;73.97
8253;BME280;61313;48.396;10.008;2023-11-18T03:07:03;97041.19;;;5.64;73.66
8253;BME280;61313;48.396;10.008;2023-11-18T03:09:28;97041.16;;;5.66;73.61
8253;BME280;61313;48.396;10.008;2023-11-18T03:11:54;97039.47;;;5.62;73.69
8253;BME280;61313;48.396;10.008;2023-11-18T03:14:20;97044.75;;;5.57;73.72
8253;BME280;61313;48.396;10.008;2023-11-18T03:16:45;97048.25;;;5.55;73.94
8253;BME280;61313;48.396;10.008;2023-11-18T03:19:11;97052.63;;;5.52;73.84
8253;BME280;61313;48.396;10.008;2023-11-18T03:21:36;97042.19;;;5.56;73.90
8253;BME280;61313;48.396;10.008;2023-11-18T03:24:02;97049.22;;;5.50;73.86
8253;BME280;61313;48.396;10.008;2023-11-18T03:26:27;97050.13;;;5.45;74.19
8253;BME280;61313;48.396;10.008;2023-11-18T03:28:54;97050.81;;;5.59;73.38
8253;BME280;61313;48.396;10.008;2023-11-18T03:31:19;97048.31;;;5.53;73.91
8253;BME280;61313;48.396;10.008;2023-11-18T03:33:45;97048.38;;;5.48;73.70
8253;BME280;61313;48.396;10.008;2023-11-18T03:36:10;97038.75;;;5.52;73.55
8253;BME280;61313;48.396;10.008;2023-11-18T03:38:37;97039.66;;;5.49;73.54
8253;BME280;61313;48.396;10.008;2023-11-18T03:41:02;97042.94;;;5.64;73.24
8253;BME280;61313;48.396;10.008;2023-11-18T03:43:28;97049.09;;;5.57;73.11
8253;BME280;61313;48.396;10.008;2023-11-18T03:45:54;97036.19;;;5.50;73.29
8253;BME280;61313;48.396;10.008;2023-11-18T03:48:22;97042.19;;;5.56;73.14
8253;BME280;61313;48.396;10.008;2023-11-18T03:50:47;97040.56;;;5.47;73.61
8253;BME280;61313;48.396;10.008;2023-11-18T03:53:13;97047.47;;;5.48;73.55
8253;BME280;61313;48.396;10.008;2023-11-18T03:55:38;97040.50;;;5.53;73.22
8253;BME280;61313;48.396;10.008;2023-11-18T03:58:04;97046.66;;;5.46;73.33
8253;BME280;61313;48.396;10.008;2023-11-18T04:00:29;97041.47;;;5.44;73.12
8253;BME280;61313;48.396;10.008;2023-11-18T04:02:58;97041.41;;;5.50;73.19
8253;BME280;61313;48.396;10.008;2023-11-18T04:05:24;97056.13;;;5.50;73.23
8253;BME280;61313;48.396;10.008;2023-11-18T04:07:49;97051.88;;;5.43;73.57
8253;BME280;61313;48.396;10.008;2023-11-18T04:10:15;97055.34;;;5.46;73.46
8253;BME280;61313;48.396;10.008;2023-11-18T04:12:40;97058.03;;;5.39;73.88
8253;BME280;61313;48.396;10.008;2023-11-18T04:15:06;97061.50;;;5.38;74.20
8253;BME280;61313;48.396;10.008;2023-11-18T04:17:32;97071.72;;;5.53;73.34
8253;BME280;61313;48.396;10.008;2023-11-18T04:19:58;97067.44;;;5.49;73.36
8253;BME280;61313;48.396;10.008;2023-11-18T04:22:23;97046.63;;;5.47;73.61
8253;BME280;61313;48.396;10.008;2023-11-18T04:24:49;97048.44;;;5.42;73.42
8253;BME280;61313;48.396;10.008;2023-11-18T04:27:15;97057.94;;;5.45;73.57
8253;BME280;61313;48.396;10.008;2023-11-18T04:29:40;97056.19;;;5.47;73.26
8253;BME280;61313;48.396;10.008;2023-11-18T04:32:06;97052.72;;;5.46;73.44
8253;BME280;61313;48.396;10.008;2023-11-18T04:34:37;97061.44;;;5.44;73.50
8253;BME280;61313;48.396;10.008;2023-11-18T04:37:04;97052.66;;;5.51;73.10
8253;BME280;61313;48.396;10.008;2023-11-18T04:39:34;97043.97;;;5.52;72.75
8253;BME280;61313;48.396;10.008;2023-11-18T04:42:00;97053.59;;;5.45;73.29
8253;BME280;61313;48.396;10.008;2023-11-18T04:44:26;97053.59;;;5.45;73.30
8253;BME280;61313;48.396;10.008;2023-11-18T04:46:52;97059.81;;;5.35;73.78
8253;BME280;61313;48.396;10.008;2023-11-18T04:49:17;97054.53;;;5.41;73.30
8253;BME280;61313;48.396;10.008;2023-11-18T04:51:43;97051.88;;;5.44;73.16
8253;BME280;61313;48.396;10.008;2023-11-18T04:54:08;97057.88;;;5.48;73.08
8253;BME280;61313;48.396;10.008;2023-11-18T04:56:34;97055.28;;;5.51;73.04
8253;BME280;61313;48.396;10.008;2023-11-18T04:59:03;97052.63;;;5.52;72.90
8253;BME280;61313;48.396;10.008;2023-11-18T05:01:32;97052.56;;;5.57;72.93
8253;BME280;61313;48.396;10.008;2023-11-18T05:03:57;97047.41;;;5.54;72.80
8253;BME280;61313;48.396;10.008;2023-11-18T05:06:23;97038.75;;;5.54;72.78
8253;BME280;61313;48.396;10.008;2023-11-18T05:08:49;97046.69;;;5.43;73.18
8253;BME280;61313;48.396;10.008;2023-11-18T05:11:15;97045.81;;;5.44;73.05
8253;BME280;61313;48.396;10.008;2023-11-18T05:13:41;97051.94;;;5.41;73.11
8253;BME280;61313;48.396;10.008;2023-11-18T05:16:06;97051.03;;;5.42;73.16
8253;BME280;61313;48.396;10.008;2023-11-18T05:18:32;97051.03;;;5.41;73.11
8253;BME280;61313;48.396;10.008;2023-11-18T05:21:01;97045.78;;;5.47;73.09
8253;BME280;61313;48.396;10.008;2023-11-18T05:23:27;97046.75;;;5.38;72.98
8253;BME280;61313;48.396;10.008;2023-11-18T05:25:54;97044.25;;;5.29;73.78
8253;BME280;61313;48.396;10.008;2023-11-18T05:28:21;97041.56;;;5.37;73.45
8253;BME280;61313;48.396;10.008;2023-11-18T05:30:47;97043.34;;;5.35;73.59
8253;BME280;61313;48.396;10.008;2023-11-18T05:33:12;97038.03;;;5.41;73.72
8253;BME280;61313;48.396;10.008;2023-11-18T05:35:43;97039.78;;;5.42;73.71
8253;BME280;61313;48.396;10.008;2023-11-18T05:38:15;97044.00;;;5.49;73.60
8253;BME280;61313;48.396;10.008;2023-11-18T05:40:42;97058.91;;;5.39;73.70
8253;BME280;61313;48.396;10.008;2023-11-18T05:43:09;97045.84;;;5.41;73.63
8253;BME280;61313;48.396;10.008;2023-11-18T05:45:41;97043.28;;;5.36;73.71
8253;BME280;61313;48.396;10.008;2023-11-18T05:48:26;97044.09;;;5.43;73.89
8253;BME280;61313;48.396;10.008;2023-11-18T05:50:51;97045.88;;;5.39;73.77
8253;BME280;61313;48.396;10.008;2023-11-18T05:53:17;97052.06;;;5.29;73.84
8253;BME280;61313;48.396;10.008;2023-11-18T05:55:42;97052.94;;;5.29;74.32
8253;BME280;61313;48.396;10.008;2023-11-18T05:58:08;97042.50;;;5.33;74.13
8253;BME280;61313;48.396;10.008;2023-11-18T06:00:34;97043.22;;;5.44;73.46
8253;BME280;61313;48.396;10.008;2023-11-18T06:02:59;97048.47;;;5.39;73.56
8253;BME280;61313;48.396;10.008;2023-11-18T06:05:25;97047.53;;;5.46;73.60
8253;BME280;61313;48.396;10.008;2023-11-18T06:07:54;97042.38;;;5.42;73.60
8253;BME280;61313;48.396;10.008;2023-11-18T06:10:19;97043.22;;;5.44;73.72
8253;BME280;61313;48.396;10.008;2023-11-18T06:12:45;97037.16;;;5.42;73.54
8253;BME280;61313;48.396;10.008;2023-11-18T06:15:12;97040.63;;;5.41;73.66
8253;BME280;61313;48.396;10.008;2023-11-18T06:17:39;97039.88;;;5.33;74.15
8253;BME280;61313;48.396;10.008;2023-11-18T06:20:05;97047.59;;;5.40;73.78
8253;BME280;61313;48.396;10.008;2023-11-18T06:22:31;97049.28;;;5.43;73.83
8253;BME280;61313;48.396;10.008;2023-11-18T06:24:57;97036.31;;;5.41;73.61
8253;BME280;61313;48.396;10.008;2023-11-18T06:27:22;97037.28;;;5.33;74.33
8253;BME280;61313;48.396;10.008;2023-11-18T06:29:49;97038.94;;;5.38;73.97
8253;BME280;61313;48.396;10.008;2023-11-18T06:32:15;97025.00;;;5.41;73.71
8253;BME280;61313;48.396;10.008;2023-11-18T06:34:41;97034.56;;;5.43;73.43
8253;BME280;61313;48.396;10.008;2023-11-18T06:37:06;97032.94;;;5.33;73.53
8253;BME280;61313;48.396;10.008;2023-11-18T06:39:32;97034.63;;;5.36;73.30
8253;BME280;61313;48.396;10.008;2023-11-18T06:42:00;97042.50;;;5.33;73.93
8253;BME280;61313;48.396;10.008;2023-11-18T06:44:26;97041.56;;;5.37;73.82
8253;BME280;61313;48.396;10.008;2023-11-18T06:46:51;97037.16;;;5.43;73.33
8253;BME280;61313;48.396;10.008;2023-11-18T06:49:17;97051.03;;;5.41;73.38
8253;BME280;61313;48.396;10.008;2023-11-18T06:51:43;97047.69;;;5.31;73.73
8253;BME280;61313;48.396;10.008;2023-11-18T06:54:09;97047.63;;;5.39;73.43
8253;BME280;61313;48.396;10.008;2023-11-18T06:56:39;97052.00;;;5.37;73.57
8253;BME280;61313;48.396;10.008;2023-11-18T06:59:08;97061.56;;;5.35;73.63
8253;BME280;61313;48.396;10.008;2023-11-18T07:01:38;97057.16;;;5.40;73.38
8253;BME280;61313;48.396;10.008;2023-11-18T07:04:06;97061.38;;;5.48;73.24
8253;BME280;61313;48.396;10.008;2023-11-18T07:06:33;97058.69;;;5.55;73.10
8253;BME280;61313;48.396;10.008;2023-11-18T07:09:04;97069.94;;;5.58;72.54
8253;BME280;61313;48.396;10.008;2023-11-18T07:11:34;97075.91;;;5.65;72.29
8253;BME280;61313;48.396;10.008;2023-11-18T07:14:00;97059.00;;;5.93;71.26
8253;BME280;61313;48.396;10.008;2023-11-18T07:16:26;97063.31;;;7.43;66.70
8253;BME280;61313;48.396;10.008;2023-11-18T07:18:52;97061.38;;;8.30;62.80
8253;BME280;61313;48.396;10.008;2023-11-18T07:21:18;97057.03;;;7.91;63.81
8253;BME280;61313;48.396;10.008;2023-11-18T07:23:43;97069.88;;;8.02;63.08
8253;BME280;61313;48.396;10.008;2023-11-18T07:26:09;97068.72;;;7.34;64.82
8253;BME280;61313;48.396;10.008;2023-11-18T07:28:39;97063.16;;;7.08;65.89
8253;BME280;61313;48.396;10.008;2023-11-18T07:31:04;97077.44;;;6.90;66.19
8253;BME280;61313;48.396;10.008;2023-11-18T07:33:30;97074.22;;;6.74;67.04
8253;BME280;61313;48.396;10.008;2023-11-18T07:35:57;97077.97;;;6.59;67.15
8253;BME280;61313;48.396;10.008;2023-11-18T07:38:23;97085.41;;;6.28;69.09
8253;BME280;61313;48.396;10.008;2023-11-18T07:40:49;97077.75;;;6.19;69.50
8253;BME280;61313;48.396;10.008;2023-11-18T07:43:16;97082.16;;;6.13;69.29
8253;BME280;61313;48.396;10.008;2023-11-18T07:45:42;97083.94;;;6.11;69.58
8253;BME280;61313;48.396;10.008;2023-11-18T07:48:09;97090.91;;;6.09;69.69
8253;BME280;61313;48.396;10.008;2023-11-18T07:50:38;97090.91;;;6.11;69.98
8253;BME280;61313;48.396;10.008;2023-11-18T07:53:06;97095.19;;;6.13;69.48
8253;BME280;61313;48.396;10.008;2023-11-18T07:55:32;97091.88;;;6.02;70.05
8253;BME280;61313;48.396;10.008;2023-11-18T07:58:00;97091.81;;;6.10;70.02
8253;BME280;61313;48.396;10.008;2023-11-18T08:00:27;97089.34;;;5.99;70.43
8253;BME280;61313;48.396;10.008;2023-11-18T08:02:56;97093.75;;;5.92;70.14
8253;BME280;61313;48.396;10.008;2023-11-18T08:05:22;97090.25;;;5.97;70.13
8253;BME280;61313;48.396;10.008;2023-11-18T08:07:49;97088.41;;;6.05;70.34
8253;BME280;61313;48.396;10.008;2023-11-18T08:10:14;97089.19;;;6.10;69.83
8253;BME280;61313;48.396;10.008;2023-11-18T08:12:44;97071.81;;;6.09;69.48
8253;BME280;61313;48.396;10.008;2023-11-18T08:15:10;97076.38;;;5.93;70.02
8253;BME280;61313;48.396;10.008;2023-11-18T08:17:36;97077.38;;;5.83;70.32
8253;BME280;61313;48.396;10.008;2023-11-18T08:20:02;97075.63;;;5.85;69.96
8253;BME280;61313;48.396;10.008;2023-11-18T08:22:39;97075.47;;;5.97;70.50
8253;BME280;61313;48.396;10.008;2023-11-18T08:25:05;97083.38;;;5.88;70.46
8253;BME280;61313;48.396;10.008;2023-11-18T08:27:33;97086.88;;;5.88;69.40
8253;BME280;61313;48.396;10.008;2023-11-18T08:29:59;97096.41;;;5.88;70.29
8253;BME280;61313;48.396;10.008;2023-11-18T08:32:24;97106.81;;;5.91;70.43
8253;BME280;61313;48.396;10.008;2023-11-18T08:34:50;97094.97;;;5.67;71.12
8253;BME280;61313;48.396;10.008;2023-11-18T08:37:16;97091.53;;;5.63;71.58
8253;BME280;61313;48.396;10.008;2023-11-18T08:39:42;97086.88;;;5.87;71.17
8253;BME280;61313;48.396;10.008;2023-11-18T08:42:07;97090.34;;;5.89;70.87
8253;BME280;61313;48.396;10.008;2023-11-18T08:44:33;97084.28;;;5.87;71.03
8253;BME280;61313;48.396;10.008;2023-11-18T08:46:58;97079.13;;;5.82;70.99
8253;BME280;61313;48.396;10.008;2023-11-18T08:49:24;97079.22;;;5.76;71.37
8253;BME280;61313;48.396;10.008;2023-11-18T08:51:50;97090.41;;;5.84;71.84
8253;BME280;61313;48.396;10.008;2023-11-18T08:54:24;97101.59;;;5.89;71.58
8253;BME280;61313;48.396;10.008;2023-11-18T08:57:05;97089.44;;;5.90;71.35
8253;BME280;61313;48.396;10.008;2023-11-18T08:59:49;97098.28;;;5.78;71.52
8253;BME280;61313;48.396;10.008;2023-11-18T09:02:17;97085.25;;;5.80;71.42
8253;BME280;61313;48.396;10.008;2023-11-18T09:04:43;97084.28;;;5.87;71.33
8253;BME280;61313;48.396;10.008;2023-11-18T09:07:09;97096.59;;;5.76;71.97
8253;BME280;61313;48.396;10.008;2023-11-18T09:09:35;97091.41;;;5.74;72.02
8253;BME280;61313;48.396;10.008;2023-11-18T09:12:00;97089.56;;;5.82;71.44
8253;BME280;61313;48.396;10.008;2023-11-18T09:14:28;97083.44;;;5.85;71.58
8253;BME280;61313;48.396;10.008;2023-11-18T09:16:53;97092.88;;;5.92;70.86
8253;BME280;61313;48.396;10.008;2023-11-18T09:19:25;97095.31;;;6.06;71.07
8253;BME280;61313;48.396;10.008;2023-11-18T09:21:50;97089.00;;;6.22;71.27
8253;BME280;61313;48.396;10.008;2023-11-18T09:24:17;97083.13;;;6.08;70.64
8253;BME280;61313;48.396;10.008;2023-11-18T09:26:46;97078.72;;;6.13;70.55
8253;BME280;61313;48.396;10.008;2023-11-18T09:29:18;97074.63;;;5.95;70.82
8253;BME280;61313;48.396;10.008;2023-11-18T09:31:46;97078.84;;;6.04;71.01
8253;BME280;61313;48.396;10.008;2023-11-18T09:34:16;97092.00;;;5.96;71.29
8253;BME280;61313;48.396;10.008;2023-11-18T09:36:43;97087.50;;;6.06;70.82
8253;BME280;61313;48.396;10.008;2023-11-18T09:39:09;97097.09;;;6.04;71.00
8253;BME280;61313;48.396;10.008;2023-11-18T09:41:55;97091.00;;;6.05;70.92
8253;BME280;61313;48.396;10.008;2023-11-18T09:44:21;97083.97;;;6.10;70.78
8253;BME280;61313;48.396;10.008;2023-11-18T09:46:51;97092.84;;;5.98;71.40
8253;BME280;61313;48.396;10.008;2023-11-18T09:49:27;97096.16;;;6.08;71.09
8253;BME280;61313;48.396;10.008;2023-11-18T09:51:59;97093.38;;;6.19;71.28
8253;BME280;61313;48.396;10.008;2023-11-18T09:54:49;97094.94;;;6.30;70.02
8253;BME280;61313;48.396;10.008;2023-11-18T10:00:00;97099.03;;;6.47;69.97
8253;BME280;61313;48.396;10.008;2023-11-18T10:02:39;97089.41;;;6.50;69.73
8253;BME280;61313;48.396;10.008;2023-11-18T10:05:06;97091.09;;;6.54;69.09
8253;BME280;61313;48.396;10.008;2023-11-18T10:07:39;97085.16;;;6.45;70.12
8253;BME280;61313;48.396;10.008;2023-11-18T10:10:07;97086.81;;;6.50;69.75
8253;BME280;61313;48.396;10.008;2023-11-18T10:12:39;97082.53;;;6.46;69.78
8253;BME280;61313;48.396;10.008;2023-11-18T10:15:08;97087.75;;;6.46;69.62
8253;BME280;61313;48.396;10.008;2023-11-18T10:17:47;97081.59;;;6.50;69.14
8253;BME280;61313;48.396;10.008;2023-11-18T10:20:51;97081.22;;;6.72;69.05
8253;BME280;61313;48.396;10.008;2023-11-18T10:23:18;97079.91;;;6.96;67.55
8253;BME280;61313;48.396;10.008;2023-11-18T10:25:48;97079.81;;;7.00;67.42
8253;BME280;61313;48.396;10.008;2023-11-18T10:30:55;97061.19;;;7.20;66.71
8253;BME280;61313;48.396;10.008;2023-11-18T10:33:24;97050.41;;;7.37;66.05
8253;BME280;61313;48.396;10.008;2023-11-18T10:35:56;97067.56;;;7.49;65.65
8253;BME280;61313;48.396;10.008;2023-11-18T10:38:22;97064.22;;;7.41;66.02
8253;BME280;61313;48.396;10.008;2023-11-18T10:40:58;97060.19;;;7.26;66.65
8253;BME280;61313;48.396;10.008;2023-11-18T10:43:24;97060.19;;;7.26;66.70
8253;BME280;61313;48.396;10.008;2023-11-18T10:46:15;97064.13;;;7.46;66.18
8253;BME280;61313;48.396;10.008;2023-11-18T10:48:44;97058.16;;;7.40;66.17
8253;BME280;61313;48.396;10.008;2023-11-18T10:51:15;97055.63;;;7.37;65.69
8253;BME280;61313;48.396;10.008;2023-11-18T10:53:42;97062.34;;;7.49;64.77
8253;BME280;61313;48.396;10.008;2023-11-18T10:56:26;97057.22;;;7.43;65.75
8253;BME280;61313;48.396;10.008;2023-11-18T10:58:55;97058.88;;;7.47;65.92
8253;BME280;61313;48.396;10.008;2023-11-18T11:03:54;97054.69;;;7.40;66.06
8253;BME280;61313;48.396;10.008;2023-11-18T11:06:24;97064.22;;;7.41;65.67
8253;BME280;61313;48.396;10.008;2023-11-18T11:08:52;97061.56;;;7.44;66.49
8253;BME280;61313;48.396;10.008;2023-11-18T11:11:21;97051.06;;;7.46;65.68
8253;BME280;61313;48.396;10.008;2023-11-18T11:13:56;97051.06;;;7.46;65.52
8253;BME280;61313;48.396;10.008;2023-11-18T11:16:28;97046.78;;;7.43;66.14
8253;BME280;61313;48.396;10.008;2023-11-18T11:19:03;97049.28;;;7.49;66.69
8253;BME280;61313;48.396;10.008;2023-11-18T11:21:37;97047.63;;;7.43;66.67
8253;BME280;61313;48.396;10.008;2023-11-18T11:24:20;97040.03;;;7.33;67.30
8253;BME280;61313;48.396;10.008;2023-11-18T11:27:16;97034.75;;;7.36;67.50
8253;BME280;61313;48.396;10.008;2023-11-18T11:30:01;97046.09;;;7.35;66.69
8253;BME280;61313;48.396;10.008;2023-11-18T11:32:39;97033.97;;;7.32;67.33
8253;BME280;61313;48.396;10.008;2023-11-18T11:35:17;97038.09;;;7.42;67.49
8253;BME280;61313;48.396;10.008;2023-11-18T11:37:47;97040.69;;;7.44;66.36
8253;BME280;61313;48.396;10.008;2023-11-18T11:40:14;97047.72;;;7.40;67.37
8253;BME280;61313;48.396;10.008;2023-11-18T11:42:48;97044.19;;;7.41;67.05
8253;BME280;61313;48.396;10.008;2023-11-18T11:45:21;97038.69;;;7.55;66.91
8253;BME280;61313;48.396;10.008;2023-11-18T11:47:49;97028.28;;;7.54;66.21
8253;BME280;61313;48.396;10.008;2023-11-18T11:50:22;97032.63;;;7.53;67.03
8253;BME280;61313;48.396;10.008;2023-11-18T11:53:07;97029.34;;;7.45;67.21
8253;BME280;61313;48.396;10.008;2023-11-18T11:55:55;97028.44;;;7.46;66.84
8253;BME280;61313;48.396;10.008;2023-11-18T11:58:33;97022.34;;;7.46;66.72
8253;BME280;61313;48.396;10.008;2023-11-18T12:01:00;97025.69;;;7.54;66.51
8253;BME280;61313;48.396;10.008;2023-11-18T12:03:26;97017.63;;;7.63;66.80
8253;BME280;61313;48.396;10.008;2023-11-18T12:06:01;97009.84;;;7.60;66.79
8253;BME280;61313;48.396;10.008;2023-11-18T12:08:34;97007.31;;;7.57;66.38
8253;BME280;61313;48.396;10.008;2023-11-18T12:11:02;97012.56;;;7.55;67.14
8253;BME280;61313;48.396;10.008;2023-11-18T12:13:27;97001.88;;;7.66;66.80
8253;BME280;61313;48.396;10.008;2023-11-18T12:15:56;97002.84;;;7.62;67.33
8253;BME280;61313;48.396;10.008;2023-11-18T12:18:30;96982.28;;;10.04;88.48
8253;BME280;61313;48.396;10.008;2023-11-18T12:20:59;96979.28;;;11.40;78.29
8253;BME280;61313;48.396;10.008;2023-11-18T12:23:28;96977.22;;;11.94;72.53
8253;BME280;61313;48.396;10.008;2023-11-18T12:25:56;96971.84;;;12.40;71.56
8253;BME280;61313;48.396;10.008;2023-11-18T12:28:30;96956.53;;;12.29;64.73
8253;BME280;61313;48.396;10.008;2023-11-18T12:31:00;96962.88;;;10.36;58.59
8253;BME280;61313;48.396;10.008;2023-11-18T12:41:42;96951.28;;;8.06;66.41
8253;BME280;61313;48.396;10.008;2023-11-18T12:47:01;96932.41;;;7.95;67.29
8253;BME280;61313;48.396;10.008;2023-11-18T12:49:48;96921.84;;;7.98;67.13
8253;BME280;61313;48.396;10.008;2023-11-18T12:52:20;96925.69;;;7.84;67.08
8253;BME280;61313;48.396;10.008;2023-11-18T12:54:47;96927.03;;;8.01;67.64
8253;BME280;61313;48.396;10.008;2023-11-18T12:57:22;96931.09;;;7.77;67.93
8253;BME280;61313;48.396;10.008;2023-11-18T12:59:51;96913.97;;;8.01;66.93
8253;BME280;61313;48.396;10.008;2023-11-18T13:02:17;96918.41;;;7.96;67.86
8253;BME280;61313;48.396;10.008;2023-11-18T13:04:45;96916.75;;;7.93;68.03
8253;BME280;61313;48.396;10.008;2023-11-18T13:07:19;96914.75;;;8.03;67.19
8253;BME280;61313;48.396;10.008;2023-11-18T13:09:46;96907.00;;;8.00;67.86
8253;BME280;61313;48.396;10.008;2023-11-18T13:12:12;96899.00;;;8.06;67.58
8253;BME280;61313;48.396;10.008;2023-11-18T13:14:42;96904.69;;;7.88;67.68
8253;BME280;61313;48.396;10.008;2023-11-18T13:17:10;96894.84;;;7.99;68.03
8253;BME280;61313;48.396;10.008;2023-11-18T13:19:37;96883.81;;;7.88;67.87
8253;BME280;61313;48.396;10.008;2023-11-18T13:22:05;96884.56;;;7.91;68.35
8253;BME280;61313;48.396;10.008;2023-11-18T13:24:40;96875.13;;;7.87;67.96
8253;BME280;61313;48.396;10.008;2023-11-18T13:27:06;96882.75;;;7.95;68.79
8253;BME280;61313;48.396;10.008;2023-11-18T13:29:33;96875.72;;;7.97;67.98
8253;BME280;61313;48.396;10.008;2023-11-18T13:32:00;96882.66;;;7.98;67.69
8253;BME280;61313;48.396;10.008;2023-11-18T13:34:39;96879.94;;;8.02;67.95
8253;BME280;61313;48.396;10.008;2023-11-18T13:37:07;96888.69;;;8.01;68.39